createdAt,value
2019-03-13T00:00:50.464Z,1002.00
2019-03-13T00:01:50.491Z,1002.01
2019-03-13T00:02:50.528Z,1001.98
2019-03-13T00:03:50.600Z,1002.02
2019-03-13T00:04:50.585Z,1001.98
2019-03-13T00:05:50.617Z,1002.08
2019-03-13T00:06:50.999Z,1002.12
2019-03-13T00:07:50.733Z,1002.14
2019-03-13T00:09:50.783Z,1002.09
2019-03-13T00:10:50.792Z,1002.12
2019-03-13T00:11:50.945Z,1002.10
2019-03-13T00:12:50.827Z,1002.07
2019-03-13T00:13:51.202Z,1002.05
2019-03-13T00:14:50.931Z,1002.03
2019-03-13T00:15:50.917Z,1002.02
2019-03-13T00:16:50.936Z,1002.03
2019-03-13T00:17:50.973Z,1001.94
2019-03-13T00:18:51.055Z,1002.02
2019-03-13T00:19:51.083Z,1001.97
2019-03-13T00:20:51.511Z,1001.97
2019-03-13T00:21:51.144Z,1002.00
2019-03-13T00:22:51.265Z,1002.01
2019-03-13T00:23:51.199Z,1001.97
2019-03-13T00:24:51.186Z,1001.96
2019-03-13T00:25:51.271Z,1002.00
2019-03-13T00:26:51.294Z,1001.93
2019-03-13T00:27:51.574Z,1002.01
2019-03-13T00:28:51.292Z,1002.07
2019-03-13T00:29:51.376Z,1002.05
2019-03-13T00:30:51.402Z,1002.02
2019-03-13T00:31:51.390Z,1002.04
2019-03-13T00:32:51.467Z,1002.07
2019-03-13T00:33:51.493Z,1002.13
2019-03-13T00:34:51.939Z,1002.01
2019-03-13T00:35:51.516Z,1002.05
2019-03-13T00:36:51.537Z,1002.09
2019-03-13T00:37:51.575Z,1002.11
2019-03-13T00:38:51.596Z,1002.08
2019-03-13T00:39:51.772Z,1002.11
2019-03-13T00:40:52.006Z,1002.07
2019-03-13T00:41:51.685Z,1002.11
2019-03-13T00:42:51.715Z,1002.00
2019-03-13T00:43:51.742Z,1002.03
2019-03-13T00:44:51.928Z,1002.04
2019-03-13T00:45:51.797Z,1002.03
2019-03-13T00:46:52.182Z,1002.04
2019-03-13T00:47:51.869Z,1002.02
2019-03-13T00:48:51.966Z,1002.02
2019-03-13T00:49:51.964Z,1002.04
2019-03-13T00:50:51.961Z,1002.05
2019-03-13T00:51:52.042Z,1002.07
2019-03-13T00:52:52.361Z,1002.07
2019-03-13T00:53:52.036Z,1001.97
2019-03-13T00:54:52.070Z,1002.05
2019-03-13T00:55:52.146Z,1002.04
2019-03-13T00:56:52.134Z,1002.08
2019-03-13T00:57:52.222Z,1002.07
2019-03-13T00:58:52.242Z,1001.99
2019-03-13T00:59:52.514Z,1002.04
2019-03-13T01:00:52.248Z,1002.04
2019-03-13T01:01:52.276Z,1002.07
2019-03-13T01:02:52.365Z,1002.08
2019-03-13T01:03:52.379Z,1002.07
2019-03-13T01:04:52.512Z,1002.01
2019-03-13T01:05:52.397Z,1002.01
2019-03-13T01:06:52.767Z,1002.03
2019-03-13T01:07:52.497Z,1002.07
2019-03-13T01:08:52.536Z,1002.03
2019-03-13T01:09:52.507Z,1002.06
2019-03-13T01:10:52.593Z,1002.01
2019-03-13T01:11:52.573Z,1001.99
2019-03-13T01:12:52.604Z,1002.04
2019-03-13T01:13:52.981Z,1001.96
2019-03-13T01:14:52.712Z,1002.00
2019-03-13T01:15:52.743Z,1001.99
2019-03-13T01:17:52.749Z,1002.00
2019-03-13T01:18:52.823Z,1001.98
2019-03-13T01:19:52.805Z,1001.98
2019-03-13T01:20:53.183Z,1002.04
2019-03-13T01:21:52.860Z,1002.05
2019-03-13T01:22:52.946Z,1002.03
2019-03-13T01:23:52.919Z,1001.96
2019-03-13T01:24:52.952Z,1002.03
2019-03-13T01:25:53.028Z,1001.98
2019-03-13T01:26:53.060Z,1001.94
2019-03-13T01:27:53.388Z,1001.97
2019-03-13T01:28:53.121Z,1001.98
2019-03-13T01:29:53.151Z,1001.99
2019-03-13T01:30:53.180Z,1001.95
2019-03-13T01:31:53.165Z,1001.94
2019-03-13T01:32:53.188Z,1001.94
2019-03-13T01:33:53.338Z,1001.95
2019-03-13T01:34:53.608Z,1001.93
2019-03-13T01:35:53.688Z,1001.94
2019-03-13T01:36:53.661Z,1001.94
2019-03-13T01:37:53.393Z,1001.99
2019-03-13T01:38:53.361Z,1001.95
2019-03-13T01:40:53.431Z,1002.04
2019-03-13T01:41:53.811Z,1002.09
2019-03-13T01:42:53.535Z,1002.04
2019-03-13T01:43:53.522Z,1002.06
2019-03-13T01:44:53.543Z,1002.02
2019-03-13T01:45:53.578Z,1002.09
2019-03-13T01:46:53.665Z,1002.08
2019-03-13T01:47:53.695Z,1002.17
2019-03-13T01:48:54.027Z,1002.05
2019-03-13T01:49:53.748Z,1002.07
2019-03-13T01:50:53.873Z,1002.08
2019-03-13T01:51:53.752Z,1002.09
2019-03-13T01:52:53.826Z,1002.03
2019-03-13T01:53:53.813Z,1002.03
2019-03-13T01:54:53.897Z,1002.04
2019-03-13T01:55:54.219Z,1002.03
2019-03-13T01:56:53.898Z,1002.02
2019-03-13T01:57:53.948Z,1001.99
2019-03-13T01:58:54.002Z,1001.95
2019-03-13T01:59:53.987Z,1001.93
2019-03-13T02:00:54.014Z,1001.95
2019-03-13T02:01:54.095Z,1001.96
2019-03-13T02:02:54.727Z,1002.01
2019-03-13T02:03:54.098Z,1001.99
2019-03-13T02:04:54.189Z,1001.89
2019-03-13T02:05:54.157Z,1001.99
2019-03-13T02:06:54.194Z,1002.02
2019-03-13T02:07:54.274Z,1001.99
2019-03-13T02:08:54.244Z,1002.06
2019-03-13T02:10:54.659Z,1002.00
2019-03-13T02:11:54.694Z,1001.97
2019-03-13T02:12:54.419Z,1001.99
2019-03-13T02:13:54.559Z,1001.98
2019-03-13T02:14:54.429Z,1002.01
2019-03-13T02:15:54.512Z,1001.95
2019-03-13T02:16:54.536Z,1002.03
2019-03-13T02:17:54.819Z,1001.98
2019-03-13T02:18:54.603Z,1001.92
2019-03-13T02:19:54.584Z,1001.87
2019-03-13T02:20:54.603Z,1001.96
2019-03-13T02:21:54.686Z,1001.96
2019-03-13T02:22:54.717Z,1001.93
2019-03-13T02:23:54.691Z,1002.00
2019-03-13T02:24:55.170Z,1001.90
2019-03-13T02:25:54.796Z,1001.97
2019-03-13T02:26:54.824Z,1001.97
2019-03-13T02:27:54.807Z,1001.85
2019-03-13T02:28:54.885Z,1001.84
2019-03-13T02:29:55.021Z,1001.83
2019-03-13T02:30:54.961Z,1001.83
2019-03-13T02:31:55.281Z,1001.87
2019-03-13T02:32:55.012Z,1001.88
2019-03-13T02:33:55.136Z,1001.87
2019-03-13T02:34:55.019Z,1001.88
2019-03-13T02:35:55.047Z,1001.85
2019-03-13T02:36:55.127Z,1001.84
2019-03-13T02:37:55.156Z,1001.84
2019-03-13T02:38:55.493Z,1001.85
2019-03-13T02:39:55.216Z,1001.86
2019-03-13T02:40:55.254Z,1001.91
2019-03-13T02:41:55.274Z,1001.86
2019-03-13T02:42:55.303Z,1001.89
2019-03-13T02:43:55.333Z,1001.87
2019-03-13T02:44:55.313Z,1001.82
2019-03-13T02:45:55.703Z,1001.89
2019-03-13T02:46:55.453Z,1001.85
2019-03-13T02:47:55.450Z,1001.85
2019-03-13T02:48:55.431Z,1001.89
2019-03-13T02:49:55.454Z,1001.79
2019-03-13T02:50:55.564Z,1001.92
2019-03-13T02:51:55.568Z,1001.85
2019-03-13T02:52:55.897Z,1001.83
2019-03-13T02:53:55.732Z,1001.90
2019-03-13T02:54:55.656Z,1001.86
2019-03-13T02:55:55.689Z,1001.89
2019-03-13T02:57:55.746Z,1001.86
2019-03-13T02:58:56.086Z,1001.92
2019-03-13T02:59:55.911Z,1001.92
2019-03-13T03:00:55.829Z,1001.98
2019-03-13T03:01:55.865Z,1001.90
2019-03-13T03:02:55.896Z,1001.92
2019-03-13T03:03:56.030Z,1001.91
2019-03-13T03:04:56.366Z,1001.90
2019-03-13T03:05:55.984Z,1001.85
2019-03-13T03:06:56.124Z,1001.90
2019-03-13T03:07:56.255Z,1001.76
2019-03-13T03:08:56.029Z,1001.82
2019-03-13T03:09:56.052Z,1001.80
2019-03-13T03:10:56.447Z,1001.80
2019-03-13T03:11:56.160Z,1001.82
2019-03-13T03:12:57.832Z,1001.74
2019-03-13T03:13:56.212Z,1001.71
2019-03-13T03:14:56.242Z,1001.77
2019-03-13T03:15:56.231Z,1001.78
2019-03-13T03:16:56.311Z,1001.72
2019-03-13T03:17:56.635Z,1001.59
2019-03-13T03:18:57.973Z,1001.61
2019-03-13T03:19:56.387Z,1001.58
2019-03-13T03:20:56.435Z,1001.61
2019-03-13T03:21:56.452Z,1001.59
2019-03-13T03:22:56.440Z,1001.59
2019-03-13T03:23:56.455Z,1001.57
2019-03-13T03:24:56.798Z,1001.45
2019-03-13T03:25:56.519Z,1001.47
2019-03-13T03:26:56.650Z,1001.45
2019-03-13T03:27:56.714Z,1001.46
2019-03-13T03:28:56.686Z,1001.48
2019-03-13T03:29:56.637Z,1001.48
2019-03-13T03:30:56.778Z,1001.50
2019-03-13T03:31:57.058Z,1001.53
2019-03-13T03:32:56.868Z,1001.47
2019-03-13T03:33:56.802Z,1001.58
2019-03-13T03:34:56.851Z,1001.55
2019-03-13T03:35:56.867Z,1001.55
2019-03-13T03:36:56.926Z,1001.58
2019-03-13T03:37:56.942Z,1001.55
2019-03-13T03:39:57.013Z,1001.53
2019-03-13T03:40:56.974Z,1001.56
2019-03-13T03:41:57.042Z,1001.58
2019-03-13T03:42:57.022Z,1001.58
2019-03-13T03:43:57.051Z,1001.59
2019-03-13T03:44:57.482Z,1001.55
2019-03-13T03:45:57.413Z,1001.50
2019-03-13T03:46:57.189Z,1001.52
2019-03-13T03:47:57.221Z,1001.51
2019-03-13T03:48:57.352Z,1001.52
2019-03-13T03:49:57.374Z,1001.49
2019-03-13T03:50:57.307Z,1001.54
2019-03-13T03:51:57.335Z,1001.52
2019-03-13T03:52:57.726Z,1001.62
2019-03-13T03:53:57.397Z,1001.57
2019-03-13T03:54:57.380Z,1001.57
2019-03-13T03:55:57.452Z,1001.60
2019-03-13T03:56:57.482Z,1001.56
2019-03-13T03:57:57.542Z,1001.58
2019-03-13T03:58:57.600Z,1001.59
2019-03-13T03:59:57.922Z,1001.56
2019-03-13T04:00:57.557Z,1001.55
2019-03-13T04:01:57.581Z,1001.56
2019-03-13T04:02:57.660Z,1001.55
2019-03-13T04:03:57.641Z,1001.58
2019-03-13T04:04:57.720Z,1001.64
2019-03-13T04:07:57.822Z,1001.61
2019-03-13T04:08:58.090Z,1001.59
2019-03-13T04:09:57.994Z,1001.58
2019-03-13T04:10:57.851Z,1001.67
2019-03-13T04:11:57.924Z,1001.64
2019-03-13T04:13:57.991Z,1001.83
2019-03-13T04:14:58.109Z,1001.71
2019-03-13T04:15:58.302Z,1001.73
2019-03-13T04:16:58.070Z,1001.71
2019-03-13T04:17:58.050Z,1001.73
2019-03-13T04:18:58.233Z,1001.65
2019-03-13T04:19:58.112Z,1001.75
2019-03-13T04:20:58.138Z,1001.72
2019-03-13T04:21:58.232Z,1001.71
2019-03-13T04:22:58.559Z,1001.64
2019-03-13T04:23:58.236Z,1001.67
2019-03-13T04:24:58.308Z,1001.74
2019-03-13T04:25:58.346Z,1001.79
2019-03-13T04:26:58.366Z,1001.71
2019-03-13T04:27:58.397Z,1001.80
2019-03-13T04:28:58.376Z,1001.85
2019-03-13T04:29:58.760Z,1001.81
2019-03-13T04:30:58.500Z,1001.69
2019-03-13T04:31:58.461Z,1001.71
2019-03-13T04:32:58.554Z,1001.68
2019-03-13T04:33:58.537Z,1001.54
2019-03-13T04:34:58.550Z,1001.68
2019-03-13T04:35:58.647Z,1001.68
2019-03-13T04:36:58.966Z,1001.65
2019-03-13T04:37:58.643Z,1001.68
2019-03-13T04:38:58.669Z,1001.65
2019-03-13T04:39:58.803Z,1001.72
2019-03-13T04:40:59.087Z,1001.67
2019-03-13T04:41:58.816Z,1001.66
2019-03-13T04:42:58.845Z,1001.75
2019-03-13T04:43:59.210Z,1001.69
2019-03-13T04:44:58.908Z,1001.70
2019-03-13T04:45:58.923Z,1001.72
2019-03-13T04:46:58.955Z,1001.73
2019-03-13T04:47:58.992Z,1001.59
2019-03-13T04:48:59.012Z,1001.69
2019-03-13T04:49:59.146Z,1001.60
2019-03-13T04:50:59.379Z,1001.61
2019-03-13T04:51:59.204Z,1001.53
2019-03-13T04:52:59.086Z,1001.61
2019-03-13T04:53:59.161Z,1001.55
2019-03-13T04:54:59.144Z,1001.53
2019-03-13T04:55:59.226Z,1001.55
2019-03-13T04:56:59.200Z,1001.50
2019-03-13T04:57:59.581Z,1001.45
2019-03-13T04:58:59.424Z,1001.51
2019-03-13T04:59:59.334Z,1001.53
2019-03-13T05:00:59.364Z,1001.52
2019-03-13T05:01:59.344Z,1001.58
2019-03-13T05:02:59.436Z,1001.54
2019-03-13T05:03:59.403Z,1001.60
2019-03-13T05:04:59.794Z,1001.58
2019-03-13T05:05:59.465Z,1001.57
2019-03-13T05:06:59.557Z,1001.57
2019-03-13T05:07:59.527Z,1001.61
2019-03-13T05:08:59.551Z,1001.65
2019-03-13T05:09:59.629Z,1001.61
2019-03-13T05:10:59.614Z,1001.57
2019-03-13T05:12:00.024Z,1001.49
2019-03-13T05:12:59.763Z,1001.44
2019-03-13T05:13:59.704Z,1001.48
2019-03-13T05:14:59.732Z,1001.47
2019-03-13T05:15:59.762Z,1001.42
2019-03-13T05:16:59.834Z,1001.49
2019-03-13T05:17:59.920Z,1001.48
2019-03-13T05:19:00.198Z,1001.44
2019-03-13T05:19:59.875Z,1001.55
2019-03-13T05:20:59.924Z,1001.53
2019-03-13T05:21:59.992Z,1001.57
2019-03-13T05:23:00.016Z,1001.56
2019-03-13T05:23:59.999Z,1001.55
2019-03-13T05:26:00.101Z,1001.56
2019-03-13T05:27:00.459Z,1001.54
2019-03-13T05:28:00.166Z,1001.57
2019-03-13T05:29:00.299Z,1001.56
2019-03-13T05:30:00.410Z,1001.58
2019-03-13T05:31:00.250Z,1001.57
2019-03-13T05:32:00.244Z,1001.61
2019-03-13T05:33:00.359Z,1001.63
2019-03-13T05:34:00.596Z,1001.58
2019-03-13T05:35:00.445Z,1001.51
2019-03-13T05:36:00.436Z,1001.60
2019-03-13T05:37:00.538Z,1001.55
2019-03-13T05:38:00.405Z,1001.58
2019-03-13T05:39:00.526Z,1001.64
2019-03-13T05:40:00.529Z,1001.64
2019-03-13T05:42:00.826Z,1001.59
2019-03-13T05:43:00.626Z,1001.48
2019-03-13T05:44:00.637Z,1001.54
2019-03-13T05:45:00.734Z,1001.57
2019-03-13T05:46:00.650Z,1001.52
2019-03-13T05:47:00.679Z,1001.43
2019-03-13T05:48:00.703Z,1001.44
2019-03-13T05:49:01.085Z,1001.47
2019-03-13T05:50:00.773Z,1001.46
2019-03-13T05:51:00.837Z,1001.47
2019-03-13T05:52:00.824Z,1001.43
2019-03-13T05:53:00.897Z,1001.41
2019-03-13T05:55:00.904Z,1001.53
2019-03-13T05:56:01.287Z,1001.50
2019-03-13T05:58:01.049Z,1001.49
2019-03-13T05:59:01.081Z,1001.49
2019-03-13T06:01:01.132Z,1001.53
2019-03-13T06:02:01.199Z,1001.50
2019-03-13T06:03:01.449Z,1001.60
2019-03-13T06:04:01.170Z,1001.53
2019-03-13T06:05:01.204Z,1001.52
2019-03-13T06:06:01.285Z,1001.39
2019-03-13T06:07:01.321Z,1001.43
2019-03-13T06:09:01.471Z,1001.41
2019-03-13T06:10:01.656Z,1001.25
2019-03-13T06:11:01.403Z,1001.25
2019-03-13T06:12:01.459Z,1001.33
2019-03-13T06:13:01.499Z,1001.33
2019-03-13T06:14:01.476Z,1001.29
2019-03-13T06:15:03.576Z,1001.38
2019-03-13T06:16:01.582Z,1001.27
2019-03-13T06:18:01.652Z,1001.33
2019-03-13T06:20:01.752Z,1001.25
2019-03-13T06:21:01.678Z,1001.17
2019-03-13T06:22:01.705Z,1001.25
2019-03-13T06:23:01.737Z,1001.22
2019-03-13T06:24:02.064Z,1001.23
2019-03-13T06:25:02.154Z,1001.07
2019-03-13T06:26:01.824Z,1001.25
2019-03-13T06:27:01.955Z,1001.24
2019-03-13T06:28:01.978Z,1001.28
2019-03-13T06:29:01.971Z,1001.37
2019-03-13T06:31:02.020Z,1001.33
2019-03-13T06:32:02.006Z,1001.33
2019-03-13T06:33:02.084Z,1001.20
2019-03-13T06:34:02.113Z,1001.41
2019-03-13T06:35:02.138Z,1001.44
2019-03-13T06:36:02.173Z,1001.45
2019-03-13T06:38:02.279Z,1001.41
2019-03-13T06:39:02.255Z,1001.46
2019-03-13T06:40:02.289Z,1001.49
2019-03-13T06:41:05.131Z,1001.57
2019-03-13T06:42:02.347Z,1001.48
2019-03-13T06:43:02.613Z,1001.45
2019-03-13T06:44:02.358Z,1001.46
2019-03-13T06:45:02.732Z,1001.56
2019-03-13T06:46:02.480Z,1001.50
2019-03-13T06:47:02.513Z,1001.48
2019-03-13T06:48:02.564Z,1001.51
2019-03-13T06:49:02.553Z,1001.54
2019-03-13T06:51:02.613Z,1001.60
2019-03-13T06:52:03.243Z,1001.48
2019-03-13T06:53:02.672Z,1001.50
2019-03-13T06:54:02.705Z,1001.44
2019-03-13T06:55:02.735Z,1001.39
2019-03-13T06:56:02.713Z,1001.35
2019-03-13T06:57:02.746Z,1001.36
2019-03-13T06:58:03.117Z,1001.38
2019-03-13T06:59:02.957Z,1001.42
2019-03-13T07:00:02.880Z,1001.42
2019-03-13T07:01:02.900Z,1001.37
2019-03-13T07:02:02.904Z,1001.30
2019-03-13T07:03:02.973Z,1001.31
2019-03-13T07:04:03.247Z,1001.30
2019-03-13T07:05:03.028Z,1001.42
2019-03-13T07:06:03.059Z,1001.35
2019-03-13T07:08:03.116Z,1001.32
2019-03-13T07:09:03.090Z,1001.32
2019-03-13T07:10:03.484Z,1001.24
2019-03-13T07:11:03.154Z,1001.28
2019-03-13T07:12:03.237Z,1001.32
2019-03-13T07:13:03.263Z,1001.22
2019-03-13T07:14:03.298Z,1001.21
2019-03-13T07:15:03.316Z,1001.28
2019-03-13T07:16:03.308Z,1001.19
2019-03-13T07:17:03.627Z,1001.20
2019-03-13T07:18:03.404Z,1001.22
2019-03-13T07:19:03.507Z,1001.21
2019-03-13T07:20:03.429Z,1001.25
2019-03-13T07:21:03.501Z,1001.21
2019-03-13T07:22:03.497Z,1001.09
2019-03-13T07:23:03.557Z,1001.13
2019-03-13T07:24:03.544Z,1001.14
2019-03-13T07:25:03.578Z,1001.23
2019-03-13T07:26:03.753Z,1001.17
2019-03-13T07:27:03.726Z,1001.14
2019-03-13T07:28:03.815Z,1001.19
2019-03-13T07:29:12.156Z,1001.17
2019-03-13T07:30:03.715Z,1001.20
2019-03-13T07:31:03.794Z,1001.21
2019-03-13T07:32:03.779Z,1001.21
2019-03-13T07:33:03.853Z,1001.21
2019-03-13T07:34:03.836Z,1001.20
2019-03-13T07:35:03.870Z,1001.17
2019-03-13T07:36:04.251Z,1001.15
2019-03-13T07:37:03.917Z,1001.21
2019-03-13T07:38:04.004Z,1001.10
2019-03-13T07:39:03.983Z,1001.11
2019-03-13T07:40:04.010Z,1001.04
2019-03-13T07:41:04.087Z,1000.93
2019-03-13T07:42:04.434Z,1000.95
2019-03-13T07:43:04.145Z,1001.04
2019-03-13T07:44:04.160Z,1001.01
2019-03-13T07:45:04.173Z,1001.12
2019-03-13T07:46:04.184Z,1001.12
2019-03-13T07:47:04.214Z,1001.06
2019-03-13T07:48:04.320Z,1001.06
2019-03-13T07:49:04.280Z,1001.00
2019-03-13T07:50:04.306Z,1001.01
2019-03-13T07:51:04.405Z,1001.09
2019-03-13T07:52:04.372Z,1001.11
2019-03-13T07:53:04.455Z,1001.13
2019-03-13T07:54:04.478Z,1001.13
2019-03-13T07:55:04.456Z,1001.08
2019-03-13T07:56:04.555Z,1001.20
2019-03-13T07:57:04.570Z,1001.10
2019-03-13T07:58:04.548Z,1001.16
2019-03-13T07:59:04.621Z,1001.05
2019-03-13T08:00:04.662Z,1001.05
2019-03-13T08:01:04.693Z,1001.21
2019-03-13T08:02:04.664Z,1001.14
2019-03-13T08:04:05.582Z,1001.07
2019-03-13T08:05:04.799Z,1001.18
2019-03-13T08:07:04.887Z,1001.15
2019-03-13T08:08:04.847Z,1001.18
2019-03-13T08:09:04.873Z,1001.19
2019-03-13T08:10:04.955Z,1001.13
2019-03-13T08:11:04.980Z,1001.20
2019-03-13T08:13:05.292Z,1001.19
2019-03-13T08:14:05.043Z,1001.13
2019-03-13T08:15:05.099Z,1001.42
2019-03-13T08:17:05.160Z,1001.21
2019-03-13T08:18:05.139Z,1001.22
2019-03-13T08:19:05.166Z,1001.21
2019-03-13T08:20:05.244Z,1001.15
2019-03-13T08:21:05.227Z,1001.21
2019-03-13T08:22:05.304Z,1001.22
2019-03-13T08:23:05.297Z,1001.13
2019-03-13T08:24:05.368Z,1001.11
2019-03-13T08:25:07.913Z,1001.07
2019-03-13T08:26:05.382Z,1001.06
2019-03-13T08:27:05.412Z,1001.03
2019-03-13T08:28:05.458Z,1000.87
2019-03-13T08:29:05.524Z,1001.04
2019-03-13T08:30:05.506Z,1001.15
2019-03-13T08:31:05.581Z,1001.03
2019-03-13T08:33:05.747Z,1001.03
2019-03-13T08:34:05.620Z,1001.15
2019-03-13T08:35:05.662Z,1001.10
2019-03-13T08:37:05.757Z,1001.09
2019-03-13T08:38:06.054Z,1001.12
2019-03-13T08:39:05.816Z,1001.11
2019-03-13T08:40:05.850Z,1001.06
2019-03-13T08:41:05.947Z,1001.11
2019-03-13T08:43:05.935Z,1001.15
2019-03-13T08:44:05.920Z,1001.17
2019-03-13T08:45:06.298Z,1001.19
2019-03-13T08:46:05.979Z,1001.06
2019-03-13T08:47:06.005Z,1001.02
2019-03-13T08:48:06.082Z,1001.07
2019-03-13T08:49:06.110Z,1001.08
2019-03-13T08:50:06.092Z,1001.05
2019-03-13T08:51:06.175Z,1001.11
2019-03-13T08:52:06.475Z,1001.11
2019-03-13T08:53:06.338Z,1001.18
2019-03-13T08:54:06.379Z,1001.11
2019-03-13T08:55:06.302Z,1001.09
2019-03-13T08:56:06.342Z,1001.08
2019-03-13T08:57:06.450Z,1001.03
2019-03-13T08:58:06.394Z,1001.05
2019-03-13T09:00:06.483Z,1000.97
2019-03-13T09:01:06.473Z,1000.99
2019-03-13T09:02:06.478Z,1000.91
2019-03-13T09:03:06.544Z,1001.09
2019-03-13T09:04:06.513Z,1000.97
2019-03-13T09:05:06.873Z,1000.90
2019-03-13T09:06:06.677Z,1000.91
2019-03-13T09:07:06.651Z,1001.05
2019-03-13T09:08:06.635Z,1001.03
2019-03-13T09:09:06.658Z,1001.10
2019-03-13T09:10:06.748Z,1001.04
2019-03-13T09:11:06.721Z,1000.98
2019-03-13T09:12:07.103Z,1001.02
2019-03-13T09:13:06.842Z,1001.02
2019-03-13T09:14:06.821Z,1001.10
2019-03-13T09:15:06.873Z,1001.04
2019-03-13T09:16:06.872Z,1001.11
2019-03-13T09:17:06.963Z,1001.02
2019-03-13T09:18:06.937Z,1001.00
2019-03-13T09:19:07.321Z,1000.99
2019-03-13T09:20:06.989Z,1000.91
2019-03-13T09:21:07.042Z,1001.01
2019-03-13T09:22:07.103Z,1001.01
2019-03-13T09:24:07.171Z,1001.08
2019-03-13T09:25:12.369Z,1001.00
2019-03-13T09:26:07.472Z,1001.07
2019-03-13T09:27:07.197Z,1001.01
2019-03-13T09:28:07.228Z,1001.00
2019-03-13T09:29:07.328Z,1000.99
2019-03-13T09:30:07.447Z,1000.84
2019-03-13T09:31:07.365Z,1000.88
2019-03-13T09:32:07.404Z,1000.91
2019-03-13T09:33:07.728Z,1000.97
2019-03-13T09:34:07.455Z,1000.87
2019-03-13T09:35:07.442Z,1000.93
2019-03-13T09:37:07.554Z,1000.92
2019-03-13T09:38:07.554Z,1001.03
2019-03-13T09:39:07.628Z,1000.96
2019-03-13T09:40:07.889Z,1000.95
2019-03-13T09:41:07.624Z,1001.01
2019-03-13T09:44:07.761Z,1000.91
2019-03-13T09:45:07.790Z,1000.92
2019-03-13T09:46:07.820Z,1000.79
2019-03-13T09:47:07.809Z,1000.67
2019-03-13T09:48:07.883Z,1000.70
2019-03-13T09:49:07.928Z,1000.76
2019-03-13T09:50:07.908Z,1000.72
2019-03-13T09:51:07.928Z,1000.75
2019-03-13T09:52:07.943Z,1000.78
2019-03-13T09:53:08.274Z,1000.71
2019-03-13T09:54:08.010Z,1000.72
2019-03-13T09:55:08.087Z,1000.77
2019-03-13T09:56:08.124Z,1000.83
2019-03-13T09:57:08.144Z,1000.79
2019-03-13T09:58:08.276Z,1000.85
2019-03-13T09:59:08.510Z,1000.66
2019-03-13T10:00:08.233Z,1000.78
2019-03-13T10:01:08.216Z,1000.58
2019-03-13T10:02:08.237Z,1000.58
2019-03-13T10:03:08.269Z,1000.64
2019-03-13T10:04:08.305Z,1000.70
2019-03-13T10:05:08.683Z,1000.63
2019-03-13T10:06:08.362Z,1000.68
2019-03-13T10:07:08.552Z,1000.64
2019-03-13T10:08:08.466Z,1000.63
2019-03-13T10:09:08.452Z,1000.61
2019-03-13T10:10:08.538Z,1000.68
2019-03-13T10:11:08.521Z,1000.61
2019-03-13T10:12:08.899Z,1000.64
2019-03-13T10:13:08.581Z,1000.63
2019-03-13T10:14:08.600Z,1000.69
2019-03-13T10:15:08.687Z,1000.60
2019-03-13T10:16:08.715Z,1000.61
2019-03-13T10:17:10.928Z,1000.63
2019-03-13T10:18:08.783Z,1000.58
2019-03-13T10:19:09.108Z,1000.59
2019-03-13T10:20:08.787Z,1000.68
2019-03-13T10:21:08.857Z,1000.56
2019-03-13T10:22:08.900Z,1000.61
2019-03-13T10:23:08.921Z,1000.47
2019-03-13T10:24:08.898Z,1000.66
2019-03-13T10:25:08.984Z,1000.55
2019-03-13T10:27:09.052Z,1000.60
2019-03-13T10:28:09.023Z,1000.59
2019-03-13T10:29:09.132Z,1000.61
2019-03-13T10:30:09.140Z,1000.56
2019-03-13T10:31:09.169Z,1000.51
2019-03-13T10:32:09.143Z,1000.60
2019-03-13T10:33:09.477Z,1000.57
2019-03-13T10:34:09.200Z,1000.56
2019-03-13T10:35:09.277Z,1000.66
2019-03-13T10:36:09.322Z,1000.83
2019-03-13T10:37:09.292Z,1000.55
2019-03-13T10:38:14.227Z,1000.65
2019-03-13T10:39:09.410Z,1000.68
2019-03-13T10:40:09.683Z,1000.69
2019-03-13T10:42:09.509Z,1000.71
2019-03-13T10:43:09.531Z,1000.68
2019-03-13T10:44:09.513Z,1000.74
2019-03-13T10:45:09.543Z,1000.76
2019-03-13T10:46:09.559Z,1000.66
2019-03-13T10:47:09.940Z,1000.79
2019-03-13T10:48:10.074Z,1000.73
2019-03-13T10:49:09.714Z,1000.71
2019-03-13T10:50:09.682Z,1000.71
2019-03-13T10:51:09.707Z,1000.74
2019-03-13T10:52:09.734Z,1000.72
2019-03-13T10:54:09.850Z,1000.80
2019-03-13T10:55:09.888Z,1000.72
2019-03-13T10:56:09.905Z,1000.72
2019-03-13T10:57:09.948Z,1000.56
2019-03-13T10:58:09.921Z,1000.65
2019-03-13T10:59:10.001Z,1000.73
2019-03-13T11:00:10.031Z,1000.67
2019-03-13T11:01:10.363Z,1000.75
2019-03-13T11:02:10.041Z,1000.64
2019-03-13T11:03:10.065Z,1000.64
2019-03-13T11:04:10.149Z,1000.72
2019-03-13T11:05:10.276Z,1000.67
2019-03-13T11:06:10.215Z,1000.65
2019-03-13T11:07:10.188Z,1000.65
2019-03-13T11:08:10.213Z,1000.66
2019-03-13T11:09:10.305Z,1000.68
2019-03-13T11:11:10.379Z,1000.64
2019-03-13T11:12:10.411Z,1000.71
2019-03-13T11:13:10.437Z,1000.66
2019-03-13T11:14:15.660Z,1000.57
2019-03-13T11:15:10.482Z,1000.71
2019-03-13T11:16:10.510Z,1000.68
2019-03-13T11:17:10.534Z,1000.66
2019-03-13T11:19:10.605Z,1000.70
2019-03-13T11:20:10.880Z,1000.73
2019-03-13T11:21:10.599Z,1000.60
2019-03-13T11:22:10.692Z,1000.67
2019-03-13T11:23:10.741Z,1000.63
2019-03-13T11:24:10.698Z,1000.69
2019-03-13T11:25:10.774Z,1000.58
2019-03-13T11:26:11.110Z,1000.51
2019-03-13T11:27:10.828Z,1000.55
2019-03-13T11:28:10.835Z,1000.45
2019-03-13T11:29:10.897Z,1000.51
2019-03-13T11:31:10.918Z,1000.62
2019-03-13T11:32:11.284Z,1000.48
2019-03-13T11:33:10.960Z,1000.48
2019-03-13T11:34:11.045Z,1000.55
2019-03-13T11:35:11.075Z,1000.59
2019-03-13T11:36:11.101Z,1000.59
2019-03-13T11:37:11.147Z,1000.53
2019-03-13T11:39:11.191Z,1000.58
2019-03-13T11:40:11.469Z,1000.60
2019-03-13T11:41:11.205Z,1000.58
2019-03-13T11:42:11.282Z,1000.57
2019-03-13T11:43:11.320Z,1000.55
2019-03-13T11:44:11.296Z,1000.55
2019-03-13T11:45:11.370Z,1000.53
2019-03-13T11:46:11.353Z,1000.55
2019-03-13T11:47:11.486Z,1000.47
2019-03-13T11:48:11.475Z,1000.43
2019-03-13T11:49:11.494Z,1000.47
2019-03-13T11:50:11.534Z,1000.45
2019-03-13T11:51:11.563Z,1000.49
2019-03-13T11:52:11.529Z,1000.47
2019-03-13T11:53:11.612Z,1000.43
2019-03-13T11:54:11.720Z,1000.53
2019-03-13T11:55:11.674Z,1000.35
2019-03-13T11:56:11.652Z,1000.44
2019-03-13T11:57:11.796Z,1000.48
2019-03-13T11:58:12.063Z,1000.54
2019-03-13T11:59:11.798Z,1000.45
2019-03-13T12:00:11.793Z,1000.48
2019-03-13T12:01:11.800Z,1000.36
2019-03-13T12:02:11.882Z,1000.46
2019-03-13T12:03:11.874Z,1000.38
2019-03-13T12:04:11.955Z,1000.47
2019-03-13T12:05:12.293Z,1000.49
2019-03-13T12:06:11.972Z,1000.46
2019-03-13T12:07:12.045Z,1000.52
2019-03-13T12:08:12.016Z,1000.52
2019-03-13T12:09:12.142Z,1000.53
2019-03-13T12:10:12.128Z,1000.43
2019-03-13T12:12:12.240Z,1000.46
2019-03-13T12:13:12.168Z,1000.47
2019-03-13T12:14:12.204Z,1000.43
2019-03-13T12:16:12.311Z,1000.38
2019-03-13T12:17:12.343Z,1000.37
2019-03-13T12:18:12.322Z,1000.41
2019-03-13T12:19:12.394Z,1000.31
2019-03-13T12:20:12.378Z,1000.42
2019-03-13T12:21:12.457Z,1000.35
2019-03-13T12:23:12.467Z,1000.37
2019-03-13T12:24:12.546Z,1000.32
2019-03-13T12:25:12.573Z,1000.34
2019-03-13T12:26:12.901Z,1000.32
2019-03-13T12:27:12.637Z,1000.25
2019-03-13T12:28:12.612Z,1000.21
2019-03-13T12:29:12.692Z,1000.29
2019-03-13T12:30:12.678Z,1000.34
2019-03-13T12:31:14.135Z,1000.18
2019-03-13T12:32:12.791Z,1000.20
2019-03-13T12:33:12.766Z,1000.13
2019-03-13T12:34:12.794Z,1000.21
2019-03-13T12:35:12.871Z,1000.19
2019-03-13T12:36:12.857Z,1000.08
2019-03-13T12:37:13.238Z,1000.11
2019-03-13T12:38:12.970Z,1000.11
2019-03-13T12:39:13.007Z,1000.13
2019-03-13T12:40:12.980Z,1000.14
2019-03-13T12:41:13.074Z,1000.07
2019-03-13T12:42:13.088Z,1000.10
2019-03-13T12:43:13.116Z,1000.10
2019-03-13T12:44:13.402Z,1000.07
2019-03-13T12:45:13.180Z,999.97
2019-03-13T12:46:13.165Z,999.94
2019-03-13T12:47:13.235Z,1000.02
2019-03-13T12:48:17.038Z,1000.04
2019-03-13T12:49:13.246Z,999.99